Portada
METAR-TAF:

METAR-TAF

Aeroports :

Nadi, Fiji

latitud: 17-45S, longitud: 177-27E, altitud: 13 m

Observació

L'informe es va fer fa 58 minuts, a les 18:00 UTC
Vent calma
Temperatura 23°C
Humitat 83%
Pressió 1012 hPa
Visibilitat 10 km o més
Escasses núvols a una alçada de 3000 ft
Núvols disperses a una alçada de 5000 ft
Cel ennuvolat a una alçada de 12000 ft

METAR: NFFN 231800Z 00000KT 9999 FEW030 SCT050 BKN120 23/20 Q1012 NOSIG

Hora: 06:58 (18:58 UTC)

Pronòstic

L'informe es va fer fa 1 hora i 56 minuts, a les 17:02 UTC
Pronòstic vàlid del 23 a les 18 UTC al 24 a les 18 UTC
Vent 5 kt del Sud-Est
Visibilitat 10 km o més
Escasses núvols a una alçada de 3000 ft
Núvols disperses a una alçada de 10000 ft
Probabilitat 30% :
Temporalment
l' 24 a les 03 UTC al 24 a les 18 UTC
Visibilitat: 5000 m
Cel ennuvolat a una alçada de 1800 ft
xàfecs de pluja

TAF: NFFN 231702Z 2318/2418 13005KT 9999 FEW030 SCT100 PROB30 TEMPO 2403/2418 5000 SHRA BKN018

Observacions i pronòstics meteorològics de més de 4000 aeroports (METAR i TAF).

Les estacions disponibles són els punts grocs i vermells al mapa.

Posi el ratolí al punt desitjat per veure el nom de l'estació.

Feu clic per veure les observacions i els pronòstics meteorològics.

Per canviar el mapa: feu clic els botons verds amb una creu de color negre per apropar; al botó verd amb un guió per allunyar la imatge; o en les fletxes verdes per a mapes adjacents.


METAR-TAF: